sensor_id;sensor_type;location;lat;lon;timestamp;temperature;humidity
5675;DHT22;2860;54.284;10.158;2023-04-06T00:01:29;-0.40;99.90
5675;DHT22;2860;54.284;10.158;2023-04-06T00:03:55;-0.50;99.90
5675;DHT22;2860;54.284;10.158;2023-04-06T00:06:20;-0.50;99.90
5675;DHT22;2860;54.284;10.158;2023-04-06T00:08:46;-0.50;99.90
5675;DHT22;2860;54.284;10.158;2023-04-06T00:11:11;-0.60;99.90
5675;DHT22;2860;54.284;10.158;2023-04-06T00:13:37;-0.70;99.90
5675;DHT22;2860;54.284;10.158;2023-04-06T00:16:03;-0.70;99.90
5675;DHT22;2860;54.284;10.158;2023-04-06T00:18:30;-0.70;99.90
5675;DHT22;2860;54.284;10.158;2023-04-06T00:20:56;-0.70;99.90
5675;DHT22;2860;54.284;10.158;2023-04-06T00:23:21;-0.80;99.90
5675;DHT22;2860;54.284;10.158;2023-04-06T00:25:47;-0.80;99.90
5675;DHT22;2860;54.284;10.158;2023-04-06T00:28:12;-0.90;99.90
5675;DHT22;2860;54.284;10.158;2023-04-06T00:30:38;-1.00;99.90
5675;DHT22;2860;54.284;10.158;2023-04-06T00:33:03;-1.00;99.90
5675;DHT22;2860;54.284;10.158;2023-04-06T00:35:29;-1.00;99.90
5675;DHT22;2860;54.284;10.158;2023-04-06T00:37:54;-1.00;99.90
5675;DHT22;2860;54.284;10.158;2023-04-06T00:40:20;-1.00;99.90
5675;DHT22;2860;54.284;10.158;2023-04-06T00:42:45;-1.00;99.90
5675;DHT22;2860;54.284;10.158;2023-04-06T00:45:11;-1.00;99.90
5675;DHT22;2860;54.284;10.158;2023-04-06T00:47:37;-1.00;99.90
5675;DHT22;2860;54.284;10.158;2023-04-06T00:50:02;-1.00;99.90
5675;DHT22;2860;54.284;10.158;2023-04-06T00:52:28;-1.00;99.90
5675;DHT22;2860;54.284;10.158;2023-04-06T00:54:53;-1.00;99.90
5675;DHT22;2860;54.284;10.158;2023-04-06T00:57:19;-1.00;99.90
5675;DHT22;2860;54.284;10.158;2023-04-06T00:59:45;-1.00;99.90
5675;DHT22;2860;54.284;10.158;2023-04-06T01:02:11;-1.00;99.90
5675;DHT22;2860;54.284;10.158;2023-04-06T01:04:37;-1.00;99.90
5675;DHT22;2860;54.284;10.158;2023-04-06T01:07:02;-1.00;99.90
5675;DHT22;2860;54.284;10.158;2023-04-06T01:09:28;-1.00;99.90
5675;DHT22;2860;54.284;10.158;2023-04-06T01:11:57;-1.00;99.90
5675;DHT22;2860;54.284;10.158;2023-04-06T01:14:24;-1.00;99.90
5675;DHT22;2860;54.284;10.158;2023-04-06T01:16:49;-1.00;99.90
5675;DHT22;2860;54.284;10.158;2023-04-06T01:19:15;-1.00;99.90
5675;DHT22;2860;54.284;10.158;2023-04-06T01:21:41;-1.00;99.90
5675;DHT22;2860;54.284;10.158;2023-04-06T01:24:07;-1.00;99.90
5675;DHT22;2860;54.284;10.158;2023-04-06T01:26:34;-1.00;99.90
5675;DHT22;2860;54.284;10.158;2023-04-06T01:29:01;-1.10;99.90
5675;DHT22;2860;54.284;10.158;2023-04-06T01:31:27;-1.10;99.90
5675;DHT22;2860;54.284;10.158;2023-04-06T01:33:53;-1.10;99.90
5675;DHT22;2860;54.284;10.158;2023-04-06T01:36:18;-1.20;99.90
5675;DHT22;2860;54.284;10.158;2023-04-06T01:38:44;-1.20;99.90
5675;DHT22;2860;54.284;10.158;2023-04-06T01:41:10;-1.20;99.90
5675;DHT22;2860;54.284;10.158;2023-04-06T01:43:36;-1.20;99.90
5675;DHT22;2860;54.284;10.158;2023-04-06T01:46:01;-1.20;99.90
5675;DHT22;2860;54.284;10.158;2023-04-06T01:48:27;-1.20;99.90
5675;DHT22;2860;54.284;10.158;2023-04-06T01:50:53;-1.20;99.90
5675;DHT22;2860;54.284;10.158;2023-04-06T01:53:19;-1.20;99.90
5675;DHT22;2860;54.284;10.158;2023-04-06T01:55:44;-1.30;99.90
5675;DHT22;2860;54.284;10.158;2023-04-06T01:58:10;-1.30;99.90
5675;DHT22;2860;54.284;10.158;2023-04-06T02:00:36;-1.40;99.90
5675;DHT22;2860;54.284;10.158;2023-04-06T02:03:01;-1.40;99.90
5675;DHT22;2860;54.284;10.158;2023-04-06T02:05:29;-1.40;99.90
5675;DHT22;2860;54.284;10.158;2023-04-06T02:07:55;-1.50;99.90
5675;DHT22;2860;54.284;10.158;2023-04-06T02:10:22;-1.50;99.90
5675;DHT22;2860;54.284;10.158;2023-04-06T02:12:47;-1.50;99.90
5675;DHT22;2860;54.284;10.158;2023-04-06T02:15:13;-1.50;99.90
5675;DHT22;2860;54.284;10.158;2023-04-06T02:17:40;-1.40;99.90
5675;DHT22;2860;54.284;10.158;2023-04-06T02:20:06;-1.40;99.90
5675;DHT22;2860;54.284;10.158;2023-04-06T02:22:32;-1.40;99.90
5675;DHT22;2860;54.284;10.158;2023-04-06T02:24:57;-1.40;99.90
5675;DHT22;2860;54.284;10.158;2023-04-06T02:27:23;-1.50;99.90
5675;DHT22;2860;54.284;10.158;2023-04-06T02:29:48;-1.50;99.90
5675;DHT22;2860;54.284;10.158;2023-04-06T02:32:14;-1.50;99.90
5675;DHT22;2860;54.284;10.158;2023-04-06T02:34:39;-1.50;99.90
5675;DHT22;2860;54.284;10.158;2023-04-06T02:37:05;-1.50;99.90
5675;DHT22;2860;54.284;10.158;2023-04-06T02:39:30;-1.60;99.90
5675;DHT22;2860;54.284;10.158;2023-04-06T02:41:56;-1.60;99.90
5675;DHT22;2860;54.284;10.158;2023-04-06T02:44:22;-1.60;99.90
5675;DHT22;2860;54.284;10.158;2023-04-06T02:46:48;-1.60;99.90
5675;DHT22;2860;54.284;10.158;2023-04-06T02:49:13;-1.60;99.90
5675;DHT22;2860;54.284;10.158;2023-04-06T02:51:39;-1.60;99.90
5675;DHT22;2860;54.284;10.158;2023-04-06T02:54:04;-1.60;99.90
5675;DHT22;2860;54.284;10.158;2023-04-06T02:56:30;-1.50;99.90
5675;DHT22;2860;54.284;10.158;2023-04-06T02:58:55;-1.60;99.90
5675;DHT22;2860;54.284;10.158;2023-04-06T03:01:21;-1.60;99.90
5675;DHT22;2860;54.284;10.158;2023-04-06T03:03:46;-1.60;99.90
5675;DHT22;2860;54.284;10.158;2023-04-06T03:06:12;-1.60;99.90
5675;DHT22;2860;54.284;10.158;2023-04-06T03:08:37;-1.60;99.90
5675;DHT22;2860;54.284;10.158;2023-04-06T03:11:03;-1.60;99.90
5675;DHT22;2860;54.284;10.158;2023-04-06T03:13:28;-1.60;99.90
5675;DHT22;2860;54.284;10.158;2023-04-06T03:15:54;-1.70;99.90
5675;DHT22;2860;54.284;10.158;2023-04-06T03:18:24;-1.70;99.90
5675;DHT22;2860;54.284;10.158;2023-04-06T03:20:49;-1.70;99.90
5675;DHT22;2860;54.284;10.158;2023-04-06T03:23:15;-1.80;99.90
5675;DHT22;2860;54.284;10.158;2023-04-06T03:25:41;-1.80;99.90
5675;DHT22;2860;54.284;10.158;2023-04-06T03:28:07;-1.80;99.90
5675;DHT22;2860;54.284;10.158;2023-04-06T03:30:32;-1.80;99.90
5675;DHT22;2860;54.284;10.158;2023-04-06T03:32:58;-1.80;99.90
5675;DHT22;2860;54.284;10.158;2023-04-06T03:35:24;-1.80;99.90
5675;DHT22;2860;54.284;10.158;2023-04-06T03:37:49;-1.80;99.90
5675;DHT22;2860;54.284;10.158;2023-04-06T03:40:15;-1.80;99.90
5675;DHT22;2860;54.284;10.158;2023-04-06T03:42:41;-1.80;99.90
5675;DHT22;2860;54.284;10.158;2023-04-06T03:45:07;-1.80;99.90
5675;DHT22;2860;54.284;10.158;2023-04-06T03:47:33;-1.90;99.90
5675;DHT22;2860;54.284;10.158;2023-04-06T03:49:58;-1.90;99.90
5675;DHT22;2860;54.284;10.158;2023-04-06T03:52:24;-1.90;99.90
5675;DHT22;2860;54.284;10.158;2023-04-06T03:54:49;-1.90;99.90
5675;DHT22;2860;54.284;10.158;2023-04-06T03:57:15;-1.90;99.90
5675;DHT22;2860;54.284;10.158;2023-04-06T03:59:40;-2.00;99.90
5675;DHT22;2860;54.284;10.158;2023-04-06T04:02:06;-2.00;99.90
5675;DHT22;2860;54.284;10.158;2023-04-06T04:04:31;-2.00;99.90
5675;DHT22;2860;54.284;10.158;2023-04-06T04:06:57;-2.00;99.90
5675;DHT22;2860;54.284;10.158;2023-04-06T04:09:22;-2.00;99.90
5675;DHT22;2860;54.284;10.158;2023-04-06T04:11:48;-2.00;99.90
5675;DHT22;2860;54.284;10.158;2023-04-06T04:14:13;-2.00;99.90
5675;DHT22;2860;54.284;10.158;2023-04-06T04:16:39;-1.90;99.90
5675;DHT22;2860;54.284;10.158;2023-04-06T04:19:05;-1.90;99.90
5675;DHT22;2860;54.284;10.158;2023-04-06T04:21:31;-1.90;99.90
5675;DHT22;2860;54.284;10.158;2023-04-06T04:23:57;-1.90;99.90
5675;DHT22;2860;54.284;10.158;2023-04-06T04:26:22;-1.90;99.90
5675;DHT22;2860;54.284;10.158;2023-04-06T04:28:48;-1.90;99.90
5675;DHT22;2860;54.284;10.158;2023-04-06T04:31:13;-1.90;99.90
5675;DHT22;2860;54.284;10.158;2023-04-06T04:33:39;-1.90;99.90
5675;DHT22;2860;54.284;10.158;2023-04-06T04:36:05;-1.90;99.90
5675;DHT22;2860;54.284;10.158;2023-04-06T04:38:30;-1.90;99.90
5675;DHT22;2860;54.284;10.158;2023-04-06T04:40:56;-1.90;99.90
5675;DHT22;2860;54.284;10.158;2023-04-06T04:43:21;-1.90;99.90
5675;DHT22;2860;54.284;10.158;2023-04-06T04:45:47;-1.90;99.90
5675;DHT22;2860;54.284;10.158;2023-04-06T04:48:12;-1.90;99.90
5675;DHT22;2860;54.284;10.158;2023-04-06T04:50:38;-1.90;99.90
5675;DHT22;2860;54.284;10.158;2023-04-06T04:53:03;-1.90;99.90
5675;DHT22;2860;54.284;10.158;2023-04-06T04:55:31;-1.90;99.90
5675;DHT22;2860;54.284;10.158;2023-04-06T04:57:56;-1.90;99.90
5675;DHT22;2860;54.284;10.158;2023-04-06T05:00:22;-1.90;99.90
5675;DHT22;2860;54.284;10.158;2023-04-06T05:02:47;-1.90;99.90
5675;DHT22;2860;54.284;10.158;2023-04-06T05:05:13;-1.90;99.90
5675;DHT22;2860;54.284;10.158;2023-04-06T05:07:39;-1.90;99.90
5675;DHT22;2860;54.284;10.158;2023-04-06T05:10:05;-1.90;99.90
5675;DHT22;2860;54.284;10.158;2023-04-06T05:12:30;-1.90;99.90
5675;DHT22;2860;54.284;10.158;2023-04-06T05:14:56;-1.90;99.90
5675;DHT22;2860;54.284;10.158;2023-04-06T05:17:22;-1.90;99.90
5675;DHT22;2860;54.284;10.158;2023-04-06T05:19:47;-1.80;99.90
5675;DHT22;2860;54.284;10.158;2023-04-06T05:22:13;-1.80;99.90
5675;DHT22;2860;54.284;10.158;2023-04-06T05:24:41;-1.80;99.90
5675;DHT22;2860;54.284;10.158;2023-04-06T05:27:06;-1.70;99.90
5675;DHT22;2860;54.284;10.158;2023-04-06T05:29:33;-1.60;99.90
5675;DHT22;2860;54.284;10.158;2023-04-06T05:31:58;-1.40;99.90
5675;DHT22;2860;54.284;10.158;2023-04-06T05:34:24;-1.10;99.90
5675;DHT22;2860;54.284;10.158;2023-04-06T05:36:49;-0.70;99.90
5675;DHT22;2860;54.284;10.158;2023-04-06T05:39:15;-0.30;99.90
5675;DHT22;2860;54.284;10.158;2023-04-06T05:41:40;0.00;99.90
5675;DHT22;2860;54.284;10.158;2023-04-06T05:44:06;0.40;99.90
5675;DHT22;2860;54.284;10.158;2023-04-06T05:46:31;0.70;99.90
5675;DHT22;2860;54.284;10.158;2023-04-06T05:48:57;0.90;99.90
5675;DHT22;2860;54.284;10.158;2023-04-06T05:51:23;1.30;99.90
5675;DHT22;2860;54.284;10.158;2023-04-06T05:53:48;1.60;99.90
5675;DHT22;2860;54.284;10.158;2023-04-06T05:56:14;1.80;99.90
5675;DHT22;2860;54.284;10.158;2023-04-06T05:58:39;2.00;99.90
5675;DHT22;2860;54.284;10.158;2023-04-06T06:01:05;2.10;99.90
5675;DHT22;2860;54.284;10.158;2023-04-06T06:03:30;2.20;99.90
5675;DHT22;2860;54.284;10.158;2023-04-06T06:06:03;2.20;99.90
5675;DHT22;2860;54.284;10.158;2023-04-06T06:08:29;2.20;99.90
5675;DHT22;2860;54.284;10.158;2023-04-06T06:10:55;2.10;99.90
5675;DHT22;2860;54.284;10.158;2023-04-06T06:13:21;1.90;99.90
5675;DHT22;2860;54.284;10.158;2023-04-06T06:15:47;1.80;99.90
5675;DHT22;2860;54.284;10.158;2023-04-06T06:18:13;1.60;99.90
5675;DHT22;2860;54.284;10.158;2023-04-06T06:20:38;1.60;99.90
5675;DHT22;2860;54.284;10.158;2023-04-06T06:23:03;1.50;99.90
5675;DHT22;2860;54.284;10.158;2023-04-06T06:25:29;1.60;99.90
5675;DHT22;2860;54.284;10.158;2023-04-06T06:27:56;1.70;99.90
5675;DHT22;2860;54.284;10.158;2023-04-06T06:30:25;2.00;99.90
5675;DHT22;2860;54.284;10.158;2023-04-06T06:32:51;2.30;99.90
5675;DHT22;2860;54.284;10.158;2023-04-06T06:35:17;2.60;99.90
5675;DHT22;2860;54.284;10.158;2023-04-06T06:37:42;2.90;99.90
5675;DHT22;2860;54.284;10.158;2023-04-06T06:40:09;3.20;99.90
5675;DHT22;2860;54.284;10.158;2023-04-06T06:42:35;3.40;99.90
5675;DHT22;2860;54.284;10.158;2023-04-06T06:45:01;3.60;99.90
5675;DHT22;2860;54.284;10.158;2023-04-06T06:47:27;3.90;99.90
5675;DHT22;2860;54.284;10.158;2023-04-06T06:49:52;4.10;99.90
5675;DHT22;2860;54.284;10.158;2023-04-06T06:52:18;4.30;99.90
5675;DHT22;2860;54.284;10.158;2023-04-06T06:54:44;4.50;99.90
5675;DHT22;2860;54.284;10.158;2023-04-06T06:57:09;4.50;99.90
5675;DHT22;2860;54.284;10.158;2023-04-06T06:59:35;4.50;99.90
5675;DHT22;2860;54.284;10.158;2023-04-06T07:02:06;4.60;99.90
5675;DHT22;2860;54.284;10.158;2023-04-06T07:04:32;4.70;99.90
5675;DHT22;2860;54.284;10.158;2023-04-06T07:06:57;4.90;99.90
5675;DHT22;2860;54.284;10.158;2023-04-06T07:09:23;4.90;99.90
5675;DHT22;2860;54.284;10.158;2023-04-06T07:11:48;4.90;99.90
5675;DHT22;2860;54.284;10.158;2023-04-06T07:14:15;5.00;99.90
5675;DHT22;2860;54.284;10.158;2023-04-06T07:16:41;5.20;99.90
5675;DHT22;2860;54.284;10.158;2023-04-06T07:19:06;5.30;99.90
5675;DHT22;2860;54.284;10.158;2023-04-06T07:21:33;5.40;99.90
5675;DHT22;2860;54.284;10.158;2023-04-06T07:23:58;5.60;99.90
5675;DHT22;2860;54.284;10.158;2023-04-06T07:26:24;5.90;99.90
5675;DHT22;2860;54.284;10.158;2023-04-06T07:28:50;6.00;99.90
5675;DHT22;2860;54.284;10.158;2023-04-06T07:31:15;6.00;99.90
5675;DHT22;2860;54.284;10.158;2023-04-06T07:33:50;6.10;99.90
5675;DHT22;2860;54.284;10.158;2023-04-06T07:36:15;6.40;99.90
5675;DHT22;2860;54.284;10.158;2023-04-06T07:38:41;6.50;99.90
5675;DHT22;2860;54.284;10.158;2023-04-06T07:41:06;6.70;99.90
5675;DHT22;2860;54.284;10.158;2023-04-06T07:43:32;6.90;99.90
5675;DHT22;2860;54.284;10.158;2023-04-06T07:45:57;7.00;99.90
5675;DHT22;2860;54.284;10.158;2023-04-06T07:48:24;7.20;99.90
5675;DHT22;2860;54.284;10.158;2023-04-06T07:50:50;7.30;99.90
5675;DHT22;2860;54.284;10.158;2023-04-06T07:53:15;7.40;99.90
5675;DHT22;2860;54.284;10.158;2023-04-06T07:55:41;7.50;99.90
5675;DHT22;2860;54.284;10.158;2023-04-06T07:58:06;7.40;99.90
5675;DHT22;2860;54.284;10.158;2023-04-06T08:00:32;7.50;99.90
5675;DHT22;2860;54.284;10.158;2023-04-06T08:02:58;7.70;99.90
5675;DHT22;2860;54.284;10.158;2023-04-06T08:05:23;7.80;99.90
5675;DHT22;2860;54.284;10.158;2023-04-06T08:07:49;7.90;99.90
5675;DHT22;2860;54.284;10.158;2023-04-06T08:10:14;8.10;99.90
5675;DHT22;2860;54.284;10.158;2023-04-06T08:12:40;8.20;99.90
5675;DHT22;2860;54.284;10.158;2023-04-06T08:15:06;8.10;99.90
5675;DHT22;2860;54.284;10.158;2023-04-06T08:17:32;8.20;99.90
5675;DHT22;2860;54.284;10.158;2023-04-06T08:19:57;8.40;99.90
5675;DHT22;2860;54.284;10.158;2023-04-06T08:22:23;8.40;99.90
5675;DHT22;2860;54.284;10.158;2023-04-06T08:24:48;8.30;99.90
5675;DHT22;2860;54.284;10.158;2023-04-06T08:27:14;8.00;99.90
5675;DHT22;2860;54.284;10.158;2023-04-06T08:29:40;8.00;99.90
5675;DHT22;2860;54.284;10.158;2023-04-06T08:32:06;8.30;99.90
5675;DHT22;2860;54.284;10.158;2023-04-06T08:34:34;8.40;99.90
5675;DHT22;2860;54.284;10.158;2023-04-06T08:37:00;8.60;99.90
5675;DHT22;2860;54.284;10.158;2023-04-06T08:39:26;8.90;99.90
5675;DHT22;2860;54.284;10.158;2023-04-06T08:41:53;9.00;99.90
5675;DHT22;2860;54.284;10.158;2023-04-06T08:44:22;8.80;99.90
5675;DHT22;2860;54.284;10.158;2023-04-06T08:46:48;8.50;99.90
5675;DHT22;2860;54.284;10.158;2023-04-06T08:49:14;8.50;99.90
5675;DHT22;2860;54.284;10.158;2023-04-06T08:51:42;8.60;99.90
5675;DHT22;2860;54.284;10.158;2023-04-06T08:54:07;8.50;99.90
5675;DHT22;2860;54.284;10.158;2023-04-06T08:56:36;8.60;99.90
5675;DHT22;2860;54.284;10.158;2023-04-06T08:59:03;8.60;99.90
5675;DHT22;2860;54.284;10.158;2023-04-06T09:01:29;8.80;99.90
5675;DHT22;2860;54.284;10.158;2023-04-06T09:03:57;9.10;99.90
5675;DHT22;2860;54.284;10.158;2023-04-06T09:06:24;9.40;99.90
5675;DHT22;2860;54.284;10.158;2023-04-06T09:08:51;9.70;99.90
5675;DHT22;2860;54.284;10.158;2023-04-06T09:11:17;9.70;99.90
5675;DHT22;2860;54.284;10.158;2023-04-06T09:16:11;10.10;99.90
5675;DHT22;2860;54.284;10.158;2023-04-06T09:18:37;10.10;99.90
5675;DHT22;2860;54.284;10.158;2023-04-06T09:21:06;10.10;99.90
5675;DHT22;2860;54.284;10.158;2023-04-06T09:23:32;10.30;99.90
5675;DHT22;2860;54.284;10.158;2023-04-06T09:26:30;10.60;99.90
5675;DHT22;2860;54.284;10.158;2023-04-06T09:28:59;10.60;99.90
5675;DHT22;2860;54.284;10.158;2023-04-06T09:31:28;10.70;99.90
5675;DHT22;2860;54.284;10.158;2023-04-06T09:33:56;10.30;99.90
5675;DHT22;2860;54.284;10.158;2023-04-06T09:36:35;10.30;99.90
5675;DHT22;2860;54.284;10.158;2023-04-06T09:39:04;10.40;99.90
5675;DHT22;2860;54.284;10.158;2023-04-06T09:41:34;10.70;99.90
5675;DHT22;2860;54.284;10.158;2023-04-06T09:44:07;10.70;99.90
5675;DHT22;2860;54.284;10.158;2023-04-06T09:46:35;10.90;99.90
5675;DHT22;2860;54.284;10.158;2023-04-06T09:49:03;11.20;99.90
5675;DHT22;2860;54.284;10.158;2023-04-06T09:54:02;11.50;99.90
5675;DHT22;2860;54.284;10.158;2023-04-06T09:56:37;11.30;99.90
5675;DHT22;2860;54.284;10.158;2023-04-06T09:59:13;11.40;99.90
5675;DHT22;2860;54.284;10.158;2023-04-06T10:01:39;11.60;99.90
5675;DHT22;2860;54.284;10.158;2023-04-06T10:04:21;11.60;99.90
5675;DHT22;2860;54.284;10.158;2023-04-06T10:06:51;11.80;99.90
5675;DHT22;2860;54.284;10.158;2023-04-06T10:09:18;11.90;99.90
5675;DHT22;2860;54.284;10.158;2023-04-06T10:11:47;12.10;99.90
5675;DHT22;2860;54.284;10.158;2023-04-06T10:14:15;12.20;99.90
5675;DHT22;2860;54.284;10.158;2023-04-06T10:16:40;12.10;99.90
5675;DHT22;2860;54.284;10.158;2023-04-06T10:19:13;12.10;99.90
5675;DHT22;2860;54.284;10.158;2023-04-06T10:21:44;12.00;99.90
5675;DHT22;2860;54.284;10.158;2023-04-06T10:24:10;12.10;99.90
5675;DHT22;2860;54.284;10.158;2023-04-06T10:26:37;12.20;99.90
5675;DHT22;2860;54.284;10.158;2023-04-06T10:29:03;12.30;99.90
5675;DHT22;2860;54.284;10.158;2023-04-06T10:31:29;12.40;99.90
5675;DHT22;2860;54.284;10.158;2023-04-06T10:34:00;12.10;99.90
5675;DHT22;2860;54.284;10.158;2023-04-06T10:36:27;11.70;99.90
5675;DHT22;2860;54.284;10.158;2023-04-06T10:38:58;11.90;99.90
5675;DHT22;2860;54.284;10.158;2023-04-06T10:41:32;12.00;99.90
5675;DHT22;2860;54.284;10.158;2023-04-06T10:43:58;12.10;99.90
5675;DHT22;2860;54.284;10.158;2023-04-06T10:46:30;12.40;99.90
5675;DHT22;2860;54.284;10.158;2023-04-06T10:48:57;12.50;99.90
5675;DHT22;2860;54.284;10.158;2023-04-06T10:51:27;12.70;99.90
5675;DHT22;2860;54.284;10.158;2023-04-06T10:53:54;12.80;99.90
5675;DHT22;2860;54.284;10.158;2023-04-06T10:56:23;12.90;99.90
5675;DHT22;2860;54.284;10.158;2023-04-06T10:58:51;13.10;99.90
5675;DHT22;2860;54.284;10.158;2023-04-06T11:01:21;13.10;99.90
5675;DHT22;2860;54.284;10.158;2023-04-06T11:03:49;13.40;99.90
5675;DHT22;2860;54.284;10.158;2023-04-06T11:06:25;13.50;99.90
5675;DHT22;2860;54.284;10.158;2023-04-06T11:08:52;13.60;99.90
5675;DHT22;2860;54.284;10.158;2023-04-06T11:11:20;13.50;99.90
5675;DHT22;2860;54.284;10.158;2023-04-06T11:13:51;13.50;99.90
5675;DHT22;2860;54.284;10.158;2023-04-06T11:16:19;13.70;99.90
5675;DHT22;2860;54.284;10.158;2023-04-06T11:18:55;13.40;99.90
5675;DHT22;2860;54.284;10.158;2023-04-06T11:21:36;12.60;99.90
5675;DHT22;2860;54.284;10.158;2023-04-06T11:24:21;12.10;99.90
5675;DHT22;2860;54.284;10.158;2023-04-06T11:26:54;12.30;99.90
5675;DHT22;2860;54.284;10.158;2023-04-06T11:29:22;12.70;99.90
5675;DHT22;2860;54.284;10.158;2023-04-06T11:31:58;12.60;99.90
5675;DHT22;2860;54.284;10.158;2023-04-06T11:34:26;12.70;99.90
5675;DHT22;2860;54.284;10.158;2023-04-06T11:36:57;12.80;99.90
5675;DHT22;2860;54.284;10.158;2023-04-06T11:39:25;13.10;99.90
5675;DHT22;2860;54.284;10.158;2023-04-06T11:41:52;13.40;99.90
5675;DHT22;2860;54.284;10.158;2023-04-06T11:44:35;13.70;99.90
5675;DHT22;2860;54.284;10.158;2023-04-06T11:47:02;13.30;99.90
5675;DHT22;2860;54.284;10.158;2023-04-06T11:49:29;13.00;99.90
5675;DHT22;2860;54.284;10.158;2023-04-06T11:51:55;12.90;99.90
5675;DHT22;2860;54.284;10.158;2023-04-06T11:54:31;13.20;99.90
5675;DHT22;2860;54.284;10.158;2023-04-06T11:56:56;13.50;99.90
5675;DHT22;2860;54.284;10.158;2023-04-06T11:59:22;13.80;99.90
5675;DHT22;2860;54.284;10.158;2023-04-06T12:01:48;13.80;99.90
5675;DHT22;2860;54.284;10.158;2023-04-06T12:04:13;13.80;99.90
5675;DHT22;2860;54.284;10.158;2023-04-06T12:06:39;14.00;99.90
5675;DHT22;2860;54.284;10.158;2023-04-06T12:09:05;13.80;99.90
5675;DHT22;2860;54.284;10.158;2023-04-06T12:11:31;13.70;99.90
5675;DHT22;2860;54.284;10.158;2023-04-06T12:13:56;13.90;99.90
5675;DHT22;2860;54.284;10.158;2023-04-06T12:16:21;13.80;99.90
5675;DHT22;2860;54.284;10.158;2023-04-06T12:18:47;13.80;99.90
5675;DHT22;2860;54.284;10.158;2023-04-06T12:21:12;14.00;99.90
5675;DHT22;2860;54.284;10.158;2023-04-06T12:23:38;14.20;99.90
5675;DHT22;2860;54.284;10.158;2023-04-06T12:26:03;14.20;99.90
5675;DHT22;2860;54.284;10.158;2023-04-06T12:28:29;13.80;99.90
5675;DHT22;2860;54.284;10.158;2023-04-06T12:30:55;13.90;99.90
5675;DHT22;2860;54.284;10.158;2023-04-06T12:33:20;13.90;99.90
5675;DHT22;2860;54.284;10.158;2023-04-06T12:35:46;14.00;99.90
5675;DHT22;2860;54.284;10.158;2023-04-06T12:38:12;14.20;99.90
5675;DHT22;2860;54.284;10.158;2023-04-06T12:40:38;14.50;99.90
5675;DHT22;2860;54.284;10.158;2023-04-06T12:43:05;14.80;99.90
5675;DHT22;2860;54.284;10.158;2023-04-06T12:45:31;14.90;99.90
5675;DHT22;2860;54.284;10.158;2023-04-06T12:47:57;15.00;99.90
5675;DHT22;2860;54.284;10.158;2023-04-06T12:50:23;15.00;99.90
5675;DHT22;2860;54.284;10.158;2023-04-06T12:52:49;15.20;99.90
5675;DHT22;2860;54.284;10.158;2023-04-06T12:55:14;15.20;99.90
5675;DHT22;2860;54.284;10.158;2023-04-06T12:57:40;14.70;99.90
5675;DHT22;2860;54.284;10.158;2023-04-06T13:00:07;14.10;99.90
5675;DHT22;2860;54.284;10.158;2023-04-06T13:02:32;14.00;99.90
5675;DHT22;2860;54.284;10.158;2023-04-06T13:04:58;14.20;99.90
5675;DHT22;2860;54.284;10.158;2023-04-06T13:07:23;14.40;99.90
5675;DHT22;2860;54.284;10.158;2023-04-06T13:09:49;14.40;99.90
5675;DHT22;2860;54.284;10.158;2023-04-06T13:12:15;14.50;99.90
5675;DHT22;2860;54.284;10.158;2023-04-06T13:14:41;14.40;99.90
5675;DHT22;2860;54.284;10.158;2023-04-06T13:17:06;14.20;99.90
5675;DHT22;2860;54.284;10.158;2023-04-06T13:19:32;14.20;99.90
5675;DHT22;2860;54.284;10.158;2023-04-06T13:21:58;14.40;99.90
5675;DHT22;2860;54.284;10.158;2023-04-06T13:24:23;14.50;99.90
5675;DHT22;2860;54.284;10.158;2023-04-06T13:26:49;14.60;99.90
5675;DHT22;2860;54.284;10.158;2023-04-06T13:29:15;14.80;99.90
5675;DHT22;2860;54.284;10.158;2023-04-06T13:31:40;14.80;99.90
5675;DHT22;2860;54.284;10.158;2023-04-06T13:34:06;14.70;99.90
5675;DHT22;2860;54.284;10.158;2023-04-06T13:36:32;14.60;99.90
5675;DHT22;2860;54.284;10.158;2023-04-06T13:38:58;14.60;99.90
5675;DHT22;2860;54.284;10.158;2023-04-06T13:41:24;14.70;99.90
5675;DHT22;2860;54.284;10.158;2023-04-06T13:43:51;14.50;99.90
5675;DHT22;2860;54.284;10.158;2023-04-06T13:46:17;14.70;99.90
5675;DHT22;2860;54.284;10.158;2023-04-06T13:48:43;14.80;99.90
5675;DHT22;2860;54.284;10.158;2023-04-06T13:53:35;14.70;99.90
5675;DHT22;2860;54.284;10.158;2023-04-06T13:56:01;14.30;99.90
5675;DHT22;2860;54.284;10.158;2023-04-06T13:58:26;14.20;99.90
5675;DHT22;2860;54.284;10.158;2023-04-06T14:00:51;14.30;99.90
5675;DHT22;2860;54.284;10.158;2023-04-06T14:03:18;14.40;99.90
5675;DHT22;2860;54.284;10.158;2023-04-06T14:05:44;14.30;99.90
5675;DHT22;2860;54.284;10.158;2023-04-06T14:08:10;14.30;99.90
5675;DHT22;2860;54.284;10.158;2023-04-06T14:10:39;14.30;99.90
5675;DHT22;2860;54.284;10.158;2023-04-06T14:13:06;14.40;99.90
5675;DHT22;2860;54.284;10.158;2023-04-06T14:15:31;14.40;99.90
5675;DHT22;2860;54.284;10.158;2023-04-06T14:17:57;14.10;99.90
5675;DHT22;2860;54.284;10.158;2023-04-06T14:20:22;14.00;99.90
5675;DHT22;2860;54.284;10.158;2023-04-06T14:22:48;14.10;99.90
5675;DHT22;2860;54.284;10.158;2023-04-06T14:25:15;14.20;99.90
5675;DHT22;2860;54.284;10.158;2023-04-06T14:27:43;14.20;99.90
5675;DHT22;2860;54.284;10.158;2023-04-06T14:30:09;14.40;99.90
5675;DHT22;2860;54.284;10.158;2023-04-06T14:32:34;14.30;99.90
5675;DHT22;2860;54.284;10.158;2023-04-06T14:35:01;14.50;99.90
5675;DHT22;2860;54.284;10.158;2023-04-06T14:37:27;14.50;99.90
5675;DHT22;2860;54.284;10.158;2023-04-06T14:39:52;14.30;99.90
5675;DHT22;2860;54.284;10.158;2023-04-06T14:42:18;14.20;99.90
5675;DHT22;2860;54.284;10.158;2023-04-06T14:44:43;14.20;99.90
5675;DHT22;2860;54.284;10.158;2023-04-06T14:47:10;14.40;99.90
5675;DHT22;2860;54.284;10.158;2023-04-06T14:49:36;14.50;99.90
5675;DHT22;2860;54.284;10.158;2023-04-06T14:52:01;14.60;99.90
5675;DHT22;2860;54.284;10.158;2023-04-06T14:54:27;14.50;99.90
5675;DHT22;2860;54.284;10.158;2023-04-06T14:56:52;14.10;99.90
5675;DHT22;2860;54.284;10.158;2023-04-06T14:59:18;13.90;99.90
5675;DHT22;2860;54.284;10.158;2023-04-06T15:01:44;13.60;99.90
5675;DHT22;2860;54.284;10.158;2023-04-06T15:04:09;13.30;99.90
5675;DHT22;2860;54.284;10.158;2023-04-06T15:06:35;13.40;99.90
5675;DHT22;2860;54.284;10.158;2023-04-06T15:09:00;13.50;99.90
5675;DHT22;2860;54.284;10.158;2023-04-06T15:11:26;13.60;99.90
5675;DHT22;2860;54.284;10.158;2023-04-06T15:13:51;13.50;99.90
5675;DHT22;2860;54.284;10.158;2023-04-06T15:16:17;13.50;99.90
5675;DHT22;2860;54.284;10.158;2023-04-06T15:18:42;13.50;99.90
5675;DHT22;2860;54.284;10.158;2023-04-06T15:21:08;13.60;99.90
5675;DHT22;2860;54.284;10.158;2023-04-06T15:23:34;13.70;99.90
5675;DHT22;2860;54.284;10.158;2023-04-06T15:26:00;13.70;99.90
5675;DHT22;2860;54.284;10.158;2023-04-06T15:28:26;13.60;99.90
5675;DHT22;2860;54.284;10.158;2023-04-06T15:30:53;13.30;99.90
5675;DHT22;2860;54.284;10.158;2023-04-06T15:33:20;13.20;99.90
5675;DHT22;2860;54.284;10.158;2023-04-06T15:35:47;13.00;99.90
5675;DHT22;2860;54.284;10.158;2023-04-06T15:38:13;13.00;99.90
5675;DHT22;2860;54.284;10.158;2023-04-06T15:40:46;13.20;99.90
5675;DHT22;2860;54.284;10.158;2023-04-06T15:43:12;13.30;99.90
5675;DHT22;2860;54.284;10.158;2023-04-06T15:45:38;13.20;99.90
5675;DHT22;2860;54.284;10.158;2023-04-06T15:48:04;13.00;99.90
5675;DHT22;2860;54.284;10.158;2023-04-06T15:50:30;13.10;99.90
5675;DHT22;2860;54.284;10.158;2023-04-06T15:52:56;13.10;99.90